Time;durP1;ratioP1;P1;durP2;ratioP2;P2;SDS_P1;SDS_P2;PMS_P1;PMS_P2;Temp;Humidity;BMP_temperature;BMP_pressure;BME280_temperature;BME280_humidity;BME280_pressure;Samples;Min_cycle;Max_cycle;Signal;HPM_P1;HPM_P2
2021/03/06 00:01:04;;;;;;;3.65;2.10;;;;;;;20.73;27.78;156581.19;1810930;78;21393;-64
2021/03/06 00:03:37;;;;;;;4.33;1.77;;;;;;;20.70;27.79;156571.94;1810997;78;21386;-65
2021/03/06 00:06:12;;;;;;;5.40;1.87;;;;;;;20.69;27.78;156570.59;1811424;79;21236;-66
2021/03/06 00:08:44;;;;;;;3.50;1.92;;;;;;;20.54;27.83;156529.59;1802497;79;21329;-65
2021/03/06 00:11:17;;;;;;;4.47;1.85;;;;;;;20.45;28.00;156507.11;1806378;79;21345;-65
2021/03/06 00:13:50;;;;;;;3.15;1.37;;;;;;;20.36;28.09;156483.31;1801219;79;21206;-68
2021/03/06 00:16:22;;;;;;;3.65;1.55;;;;;;;20.27;28.02;156459.53;1804744;79;21294;-65
2021/03/06 00:18:55;;;;;;;5.37;2.00;;;;;;;20.20;28.08;156439.69;1805222;79;21345;-65
2021/03/06 00:21:28;;;;;;;4.25;1.77;;;;;;;20.15;28.23;156427.80;1805879;79;21341;-66
2021/03/06 00:24:06;;;;;;;4.03;1.65;;;;;;;20.17;28.20;156431.75;1801440;79;21302;-66
2021/03/06 00:26:38;;;;;;;5.17;1.50;;;;;;;20.13;28.22;156421.22;1799551;78;21307;-66
2021/03/06 00:29:13;;;;;;;2.60;1.50;;;;;;;20.08;28.20;156407.97;1803141;78;21179;-66
2021/03/06 00:31:48;;;;;;;5.72;1.60;;;;;;;20.06;28.19;156404.02;1801684;79;21388;-67
2021/03/06 00:34:20;;;;;;;6.08;1.67;;;;;;;20.02;28.19;156393.44;1796109;79;21258;-67
2021/03/06 00:36:54;;;;;;;4.10;2.00;;;;;;;20.06;27.95;156404.02;1805526;79;21294;-66
2021/03/06 00:39:28;;;;;;;3.62;2.30;;;;;;;20.01;27.96;156390.78;1807842;78;21306;-66
2021/03/06 00:42:00;;;;;;;4.53;1.82;;;;;;;19.92;28.02;156365.61;1802903;79;21520;-66
2021/03/06 00:44:37;;;;;;;5.00;2.50;;;;;;;19.96;28.04;156376.25;1772201;79;21227;-65
2021/03/06 00:47:09;;;;;;;3.80;2.00;;;;;;;19.95;27.93;156372.25;1810835;79;21255;-65
2021/03/06 00:49:44;;;;;;;5.70;1.70;;;;;;;19.91;27.75;156361.66;1810942;79;21690;-67
2021/03/06 00:52:16;;;;;;;5.22;1.95;;;;;;;19.83;27.63;156341.83;1809913;78;21350;-66
2021/03/06 00:54:51;;;;;;;4.83;1.60;;;;;;;19.75;27.63;156319.34;1805781;79;21168;-67
2021/03/06 00:57:24;;;;;;;2.65;1.80;;;;;;;19.65;27.58;156292.94;1811043;78;21354;-66
2021/03/06 01:00:07;;;;;;;4.87;1.85;;;;;;;19.65;27.62;156292.94;1808789;79;21215;-65
2021/03/06 01:02:47;;;;;;;3.52;1.62;;;;;;;19.75;27.61;156320.69;1802937;79;21317;-67
2021/03/06 01:05:21;;;;;;;5.22;2.20;;;;;;;19.75;27.42;156320.69;1802309;79;21350;-66
2021/03/06 01:07:53;;;;;;;2.70;1.60;;;;;;;19.74;27.41;156316.70;1801227;78;21213;-66
2021/03/06 01:10:32;;;;;;;2.47;1.40;;;;;;;19.60;27.32;156279.75;1801134;79;21163;-65
2021/03/06 01:13:06;;;;;;;2.95;1.52;;;;;;;19.52;27.34;156258.56;1806964;78;21361;-66
2021/03/06 01:15:39;;;;;;;2.37;1.42;;;;;;;19.52;27.29;156259.92;1808918;79;21841;-65
2021/03/06 01:18:12;;;;;;;3.37;1.60;;;;;;;19.53;27.37;156261.22;1808997;79;21381;-65
2021/03/06 01:20:44;;;;;;;1.52;1.20;;;;;;;19.41;27.31;156229.50;1805213;79;21352;-65
2021/03/06 01:23:17;;;;;;;3.65;1.80;;;;;;;19.35;27.19;156213.69;1811256;79;21334;-65
2021/03/06 01:25:50;;;;;;;3.90;1.67;;;;;;;19.26;27.35;156189.91;1807779;78;21308;-65
2021/03/06 01:28:22;;;;;;;3.90;1.95;;;;;;;19.24;27.10;156184.63;1804195;79;21678;-65
2021/03/06 01:30:55;;;;;;;4.25;1.95;;;;;;;19.27;27.01;156192.50;1808798;79;21822;-65
2021/03/06 01:33:28;;;;;;;4.97;1.87;;;;;;;19.26;27.23;156191.22;1810027;79;21346;-66
2021/03/06 01:36:04;;;;;;;4.33;1.85;;;;;;;19.26;27.04;156191.22;1807219;78;21175;-65
2021/03/06 01:38:37;;;;;;;3.05;1.75;;;;;;;19.19;27.06;156171.39;1807702;79;21303;-65
2021/03/06 01:41:09;;;;;;;3.45;1.82;;;;;;;19.18;27.10;156168.75;1809139;78;21226;-65
2021/03/06 01:43:42;;;;;;;3.50;1.70;;;;;;;19.12;27.21;156152.92;1801184;79;21294;-66
2021/03/06 01:46:14;;;;;;;4.53;1.47;;;;;;;19.12;27.28;156152.92;1804968;79;21188;-66
2021/03/06 01:48:47;;;;;;;3.27;1.77;;;;;;;19.13;27.18;156156.86;1801936;79;21823;-66
2021/03/06 01:51:20;;;;;;;5.55;1.70;;;;;;;19.03;27.21;156129.11;1808025;78;21309;-66
2021/03/06 01:53:52;;;;;;;3.37;1.65;;;;;;;18.90;27.40;156094.77;1802746;79;21203;-66
2021/03/06 01:56:25;;;;;;;3.10;1.82;;;;;;;18.90;27.18;156093.42;1803466;79;21841;-66
2021/03/06 01:58:57;;;;;;;2.05;1.40;;;;;;;18.91;27.15;156097.41;1782725;79;21353;-66
2021/03/06 02:01:31;;;;;;;3.47;1.25;;;;;;;18.86;27.25;156082.89;1810230;79;21337;-67
2021/03/06 02:04:03;;;;;;;2.90;1.62;;;;;;;18.81;27.23;156069.66;1809125;78;22509;-66
2021/03/06 02:06:36;;;;;;;4.50;1.65;;;;;;;18.82;27.17;156072.31;1810625;79;21331;-67
2021/03/06 02:09:08;;;;;;;2.65;1.22;;;;;;;18.79;26.90;156064.38;1811803;79;21364;-67
2021/03/06 02:11:55;;;;;;;3.67;1.30;;;;;;;18.73;27.01;156049.84;1812118;78;21823;-67
2021/03/06 02:15:04;;;;;;;3.67;1.20;;;;;;;18.66;27.02;156031.39;1811931;79;21210;-67
2021/03/06 02:17:53;;;;;;;2.85;1.40;;;;;;;18.64;26.95;156024.75;1806138;78;21235;-66
2021/03/06 02:20:40;;;;;;;4.35;1.85;;;;;;;18.52;26.93;155993.06;1808416;79;21156;-66
2021/03/06 02:23:49;;;;;;;1.27;1.10;;;;;;;18.49;26.73;155985.19;1816232;78;21382;-65
2021/03/06 02:26:44;;;;;;;3.60;1.55;;;;;;;18.35;26.87;155949.52;1812005;79;21348;-65
2021/03/06 02:29:44;;;;;;;2.77;1.22;;;;;;;18.33;26.84;155942.92;1811802;79;21375;-66
2021/03/06 02:32:22;;;;;;;2.42;1.57;;;;;;;18.34;26.78;155946.88;1807514;79;21303;-66
2021/03/06 02:35:13;;;;;;;2.65;1.25;;;;;;;18.33;26.68;155942.92;1805419;79;21298;-66
2021/03/06 02:37:53;;;;;;;1.85;1.02;;;;;;;18.31;26.77;155937.64;1811907;79;21681;-67
2021/03/06 02:40:25;;;;;;;2.42;1.30;;;;;;;18.32;26.80;155941.63;1808435;78;21326;-67
2021/03/06 02:42:58;;;;;;;4.28;1.55;;;;;;;18.33;26.82;155942.92;1801840;78;21383;-67
2021/03/06 02:45:31;;;;;;;5.80;1.82;;;;;;;18.28;26.86;155929.75;1810660;79;21292;-67
2021/03/06 02:48:04;;;;;;;3.12;1.40;;;;;;;18.29;26.86;155932.34;1806992;78;21783;-67
2021/03/06 02:50:37;;;;;;;4.95;2.22;;;;;;;18.16;26.77;155898.03;1806630;78;21768;-67
2021/03/06 02:53:09;;;;;;;4.92;2.00;;;;;;;18.10;27.01;155880.87;1811827;79;21371;-67
2021/03/06 02:55:43;;;;;;;6.35;1.87;;;;;;;18.11;26.98;155883.52;1801995;79;21335;-67
2021/03/06 02:58:27;;;;;;;3.98;1.82;;;;;;;18.17;26.96;155900.63;1801084;79;21191;-67
2021/03/06 03:01:13;;;;;;;6.62;2.47;;;;;;;18.06;26.93;155870.30;1781702;79;21203;-67
2021/03/06 03:04:12;;;;;;;6.80;1.90;;;;;;;18.02;26.90;155859.72;1808906;78;21287;-67
2021/03/06 03:06:47;;;;;;;4.30;1.60;;;;;;;17.78;26.89;155797.73;1819700;78;21887;-67
2021/03/06 03:09:25;;;;;;;5.15;1.72;;;;;;;17.66;27.03;155764.73;1812005;79;21313;-67
2021/03/06 03:12:18;;;;;;;3.60;1.70;;;;;;;17.57;27.01;155741.00;1811930;79;21369;-66
2021/03/06 03:15:08;;;;;;;2.22;1.50;;;;;;;17.50;26.90;155723.84;1811653;79;21194;-66
2021/03/06 03:17:43;;;;;;;2.87;1.45;;;;;;;17.56;26.64;155739.70;1812096;78;21867;-66
2021/03/06 03:20:30;;;;;;;2.95;1.45;;;;;;;17.56;26.69;155739.70;1811847;79;21205;-66
2021/03/06 03:23:18;;;;;;;3.52;1.70;;;;;;;17.61;26.54;155751.56;1814826;79;21343;-67
2021/03/06 03:25:53;;;;;;;2.47;1.60;;;;;;;17.47;26.47;155715.97;1781377;78;21221;-67
2021/03/06 03:28:25;;;;;;;2.00;1.27;;;;;;;17.53;26.48;155731.78;1815301;79;21205;-66
2021/03/06 03:31:00;;;;;;;3.40;1.02;;;;;;;17.65;26.30;155762.14;1815041;78;21331;-67
2021/03/06 03:33:35;;;;;;;3.92;1.20;;;;;;;17.65;26.17;155762.14;1779836;80;21344;-67
2021/03/06 03:36:08;;;;;;;2.45;2.02;;;;;;;17.65;26.21;155763.44;1779923;80;21387;-67
2021/03/06 03:38:40;;;;;;;2.10;1.10;;;;;;;17.70;26.04;155776.66;1784071;78;21368;-67
2021/03/06 03:41:13;;;;;;;2.30;1.17;;;;;;;17.69;26.07;155772.66;1818907;78;21154;-67
2021/03/06 03:43:45;;;;;;;1.95;1.30;;;;;;;17.38;26.25;155692.19;1811871;78;21198;-67
2021/03/06 03:46:18;;;;;;;3.17;1.30;;;;;;;17.44;26.30;155708.05;1811827;79;21218;-66
2021/03/06 03:48:50;;;;;;;2.00;1.10;;;;;;;17.48;26.26;155718.56;1811928;79;21348;-67
2021/03/06 03:51:23;;;;;;;3.45;1.30;;;;;;;17.56;26.40;155739.70;1811781;79;21403;-67
2021/03/06 03:53:57;;;;;;;2.95;1.75;;;;;;;17.48;26.56;155717.27;1811990;79;21332;-67
2021/03/06 03:56:29;;;;;;;2.40;1.27;;;;;;;17.43;26.50;155704.06;1809429;78;21355;-67
2021/03/06 03:59:03;;;;;;;2.60;1.50;;;;;;;17.45;26.63;155709.34;1801104;79;21188;-67
2021/03/06 04:01:43;;;;;;;3.10;1.30;;;;;;;17.40;26.65;155696.19;1818284;78;21219;-67
2021/03/06 04:04:26;;;;;;;2.15;1.20;;;;;;;17.45;26.66;155710.69;1828889;78;21292;-67
2021/03/06 04:07:01;;;;;;;3.25;1.30;;;;;;;17.42;26.68;155702.77;1828305;78;21196;-65
2021/03/06 04:09:34;;;;;;;2.17;1.10;;;;;;;17.38;26.74;155692.19;1821094;78;21701;-66
2021/03/06 04:12:08;;;;;;;2.10;1.40;;;;;;;17.39;26.79;155694.84;1810544;79;21392;-66
2021/03/06 04:14:40;;;;;;;2.62;1.52;;;;;;;17.27;26.85;155663.14;1804646;79;21315;-66
2021/03/06 04:17:15;;;;;;;2.60;1.30;;;;;;;17.23;26.91;155652.62;1800960;79;21157;-66
2021/03/06 04:19:48;;;;;;;2.67;1.45;;;;;;;17.23;26.99;155651.28;1801239;79;21682;-65
2021/03/06 04:22:20;;;;;;;5.58;1.40;;;;;;;17.17;27.05;155634.13;1810327;79;21213;-66
2021/03/06 04:24:53;;;;;;;2.70;1.60;;;;;;;17.35;27.02;155682.97;1811986;79;21253;-66
2021/03/06 04:27:26;;;;;;;3.75;1.50;;;;;;;17.26;27.07;155659.20;1813707;79;21363;-65
2021/03/06 04:29:58;;;;;;;2.85;1.67;;;;;;;17.18;27.15;155636.77;1811450;79;21156;-66
2021/03/06 04:32:31;;;;;;;3.30;1.62;;;;;;;16.93;27.35;155570.84;1805276;79;21803;-66
2021/03/06 04:35:06;;;;;;;2.70;1.52;;;;;;;16.70;27.60;155510.22;1815037;79;21340;-67
2021/03/06 04:37:39;;;;;;;2.85;1.65;;;;;;;17.26;27.21;155659.20;1815269;78;21825;-66
2021/03/06 04:40:13;;;;;;;3.42;1.65;;;;;;;17.14;27.23;155627.55;1840648;78;21205;-66
2021/03/06 04:42:46;;;;;;;3.62;1.90;;;;;;;17.08;27.24;155610.41;1826085;78;21300;-66
2021/03/06 04:45:18;;;;;;;2.27;1.50;;;;;;;17.02;27.30;155595.91;1841031;76;21197;-66
2021/03/06 04:47:52;;;;;;;3.92;2.30;;;;;;;17.15;27.06;155628.84;1826532;78;21307;-65
2021/03/06 04:50:25;;;;;;;3.67;1.67;;;;;;;16.76;27.34;155527.34;1820270;78;21280;-66
2021/03/06 04:52:57;;;;;;;3.35;1.55;;;;;;;16.75;27.54;155523.41;1846087;78;21222;-66
2021/03/06 04:55:30;;;;;;;3.17;1.60;;;;;;;16.86;27.32;155552.41;1805345;78;21688;-66
2021/03/06 04:58:03;;;;;;;3.65;1.62;;;;;;;16.87;27.38;155556.34;1823095;78;21323;-65
2021/03/06 05:00:35;;;;;;;3.37;1.45;;;;;;;17.06;27.25;155605.13;1801098;79;21221;-64
2021/03/06 05:03:08;;;;;;;3.65;1.55;;;;;;;17.13;27.19;155623.61;1800653;79;21680;-67
2021/03/06 05:05:41;;;;;;;3.50;1.70;;;;;;;17.09;27.19;155613.05;1802367;79;21991;-66
2021/03/06 05:08:13;;;;;;;3.02;1.80;;;;;;;17.14;27.16;155626.20;1793964;78;21370;-66
2021/03/06 05:10:46;;;;;;;5.53;2.02;;;;;;;17.18;27.25;155639.41;1814689;78;21344;-65
2021/03/06 05:13:20;;;;;;;3.98;1.65;;;;;;;17.27;27.11;155663.14;1802591;79;21904;-67
2021/03/06 05:15:52;;;;;;;5.28;2.08;;;;;;;17.35;27.04;155684.31;1801607;79;21301;-65
2021/03/06 05:18:25;;;;;;;3.00;1.70;;;;;;;17.41;26.96;155700.13;1822711;77;21465;-65
2021/03/06 05:20:58;;;;;;;5.30;1.65;;;;;;;17.39;27.19;155693.55;1840941;78;21280;-65
2021/03/06 05:23:31;;;;;;;5.95;1.80;;;;;;;17.46;26.93;155713.33;1820541;78;21383;-65
2021/03/06 05:26:04;;;;;;;6.62;2.17;;;;;;;17.54;26.94;155734.41;1816575;79;21830;-65
2021/03/06 05:28:36;;;;;;;5.65;1.55;;;;;;;17.51;26.94;155726.48;1814746;79;21926;-65
2021/03/06 05:31:09;;;;;;;10.90;4.37;;;;;;;17.49;26.77;155721.20;1821846;78;21145;-65
2021/03/06 05:33:42;;;;;;;10.15;2.45;;;;;;;17.45;26.84;155709.34;1823870;78;21328;-65
2021/03/06 05:36:15;;;;;;;12.95;2.83;;;;;;;17.48;26.92;155718.56;1817524;78;21395;-65
2021/03/06 05:38:47;;;;;;;13.93;2.65;;;;;;;17.55;27.07;155735.72;1811303;78;21378;-65
2021/03/06 05:41:22;;;;;;;14.07;2.50;;;;;;;17.64;26.92;155759.50;1808430;78;21174;-65
2021/03/06 05:43:57;;;;;;;9.40;2.58;;;;;;;17.68;26.79;155770.02;1818628;78;21343;-65
2021/03/06 05:46:29;;;;;;;9.63;3.17;;;;;;;17.58;26.74;155743.64;1800691;78;21176;-65
2021/03/06 05:49:02;;;;;;;4.22;1.90;;;;;;;17.64;26.73;155759.50;1823637;77;21337;-65
2021/03/06 05:51:37;;;;;;;3.58;1.87;;;;;;;17.79;26.57;155799.03;1823935;77;21353;-65
2021/03/06 05:54:13;;;;;;;6.10;2.25;;;;;;;17.76;26.28;155791.16;1807959;78;22341;-65
2021/03/06 05:56:47;;;;;;;5.80;2.40;;;;;;;17.74;26.47;155787.16;1823543;78;21337;-65
2021/03/06 05:59:20;;;;;;;5.60;2.20;;;;;;;17.79;26.14;155799.03;1808133;77;21235;-65
2021/03/06 06:01:52;;;;;;;4.17;2.58;;;;;;;17.76;26.16;155791.16;1818795;78;21294;-65
2021/03/06 06:04:27;;;;;;;3.47;2.20;;;;;;;17.77;25.87;155793.75;1823495;78;21319;-65
2021/03/06 06:07:02;;;;;;;4.92;1.82;;;;;;;17.72;26.01;155781.87;1797869;79;21650;-65
2021/03/06 06:09:36;;;;;;;6.40;2.08;;;;;;;17.87;26.00;155821.47;1813218;78;21181;-66
2021/03/06 06:12:10;;;;;;;6.37;2.22;;;;;;;17.86;26.04;155818.83;1799360;79;21314;-66
2021/03/06 06:14:43;;;;;;;6.33;2.52;;;;;;;17.88;25.95;155822.81;1795180;79;21189;-66
2021/03/06 06:17:16;;;;;;;6.35;2.40;;;;;;;17.93;25.70;155835.98;1761470;79;21291;-65
2021/03/06 06:19:49;;;;;;;5.25;2.33;;;;;;;17.92;25.55;155833.34;1816116;78;21304;-66
2021/03/06 06:22:23;;;;;;;4.83;2.67;;;;;;;17.92;25.43;155833.34;1814431;79;21317;-66
2021/03/06 06:24:56;;;;;;;7.62;2.20;;;;;;;18.09;25.54;155878.22;1806585;79;21364;-66
2021/03/06 06:27:31;;;;;;;6.75;2.52;;;;;;;18.11;25.69;155883.52;1807843;79;21295;-66
2021/03/06 06:30:13;;;;;;;7.30;2.52;;;;;;;17.94;25.51;155839.92;1812931;78;21303;-67
2021/03/06 06:32:46;;;;;;;3.92;2.15;;;;;;;17.99;25.39;155851.84;1795767;78;21344;-66
2021/03/06 06:35:19;;;;;;;5.75;2.90;;;;;;;18.01;25.16;155857.08;1807570;78;21427;-67
2021/03/06 06:38:03;;;;;;;5.70;2.90;;;;;;;18.08;25.40;155876.87;1787703;78;21368;-67
2021/03/06 06:40:40;;;;;;;11.22;2.75;;;;;;;18.09;25.08;155878.22;1788782;79;21386;-66
2021/03/06 06:43:26;;;;;;;3.67;2.20;;;;;;;18.19;25.16;155905.91;1806210;78;21412;-67
2021/03/06 06:45:58;;;;;;;2.65;1.20;;;;;;;18.26;25.12;155924.47;1802101;78;21150;-67
2021/03/06 06:48:31;;;;;;;3.35;1.30;;;;;;;18.32;25.06;155940.28;1782239;78;22450;-66
2021/03/06 06:51:13;;;;;;;3.62;1.80;;;;;;;18.33;25.03;155944.28;1789853;78;21261;-69
2021/03/06 06:53:45;;;;;;;9.80;2.17;;;;;;;18.36;25.04;155952.16;1805977;77;21411;-68
2021/03/06 06:56:27;;;;;;;5.97;2.00;;;;;;;18.37;25.01;155954.80;1804075;78;21198;-66
2021/03/06 06:59:10;;;;;;;4.92;2.00;;;;;;;18.47;25.01;155979.89;1809298;78;21807;-67
2021/03/06 07:01:43;;;;;;;4.22;1.80;;;;;;;18.47;24.27;155981.19;1819337;78;21150;-67
2021/03/06 07:04:16;;;;;;;7.20;1.62;;;;;;;18.56;24.34;156005.00;1787039;79;22128;-67
2021/03/06 07:06:58;;;;;;;2.75;1.32;;;;;;;18.51;24.32;155990.47;1812512;78;21799;-67
2021/03/06 07:09:30;;;;;;;3.87;1.32;;;;;;;18.50;24.21;155987.83;1810348;78;21356;-67
2021/03/06 07:12:19;;;;;;;3.95;1.42;;;;;;;18.56;24.41;156003.64;1818965;78;21347;-67
2021/03/06 07:14:52;;;;;;;4.70;1.52;;;;;;;18.63;24.45;156022.16;1822385;78;21351;-67
2021/03/06 07:17:28;;;;;;;9.98;2.55;;;;;;;18.81;24.20;156070.97;1820918;79;21394;-67
2021/03/06 07:20:01;;;;;;;5.60;1.90;;;;;;;18.86;24.07;156082.89;1791193;79;21336;-67
2021/03/06 07:22:33;;;;;;;5.78;1.65;;;;;;;18.94;23.97;156105.30;1804285;79;21194;-67
2021/03/06 07:25:08;;;;;;;7.75;2.05;;;;;;;19.04;24.25;156131.70;1799637;79;21841;-68
2021/03/06 07:27:42;;;;;;;4.70;1.35;;;;;;;19.13;23.78;156156.86;1788517;80;21778;-67
2021/03/06 07:30:17;;;;;;;4.55;2.20;;;;;;;19.17;23.58;156167.45;1788858;79;21232;-66
2021/03/06 07:32:52;;;;;;;5.75;1.75;;;;;;;19.18;23.48;156170.09;1784102;79;21304;-67
2021/03/06 07:35:26;;;;;;;5.28;1.70;;;;;;;19.22;23.79;156179.33;1789478;79;21222;-67
2021/03/06 07:38:00;;;;;;;5.45;1.65;;;;;;;19.29;23.49;156199.16;1782179;79;21787;-67
2021/03/06 07:40:41;;;;;;;8.38;3.70;;;;;;;19.36;23.56;156217.62;1792346;79;21866;-68
2021/03/06 07:43:26;;;;;;;17.73;6.15;;;;;;;19.40;23.35;156228.22;1800659;79;21430;-67
2021/03/06 07:46:01;;;;;;;19.67;6.65;;;;;;;19.54;23.17;156265.22;1788322;79;21902;-67
2021/03/06 07:48:41;;;;;;;5.35;3.00;;;;;;;19.58;22.94;156274.45;1806285;79;21803;-66
2021/03/06 07:51:14;;;;;;;7.15;2.02;;;;;;;19.69;23.00;156304.81;1825429;77;21378;-67
2021/03/06 07:53:48;;;;;;;4.00;2.37;;;;;;;19.74;22.96;156316.70;1796627;79;21335;-67
2021/03/06 07:56:22;;;;;;;5.55;1.85;;;;;;;19.79;23.07;156331.23;1797255;79;21328;-66
2021/03/06 07:58:55;;;;;;;6.33;2.00;;;;;;;19.93;22.94;156366.95;1785741;80;21712;-67
2021/03/06 08:01:33;;;;;;;5.70;1.82;;;;;;;20.00;22.56;156386.84;1820451;76;21732;-67
2021/03/06 08:04:07;;;;;;;3.52;1.50;;;;;;;20.09;22.93;156410.62;1790219;78;21812;-67
2021/03/06 08:06:43;;;;;;;4.87;2.08;;;;;;;20.14;22.68;156423.81;1788608;78;21391;-69
2021/03/06 08:09:18;;;;;;;4.83;1.92;;;;;;;20.22;22.99;156445.00;1787733;78;21194;-68
2021/03/06 08:11:52;;;;;;;3.02;1.40;;;;;;;20.40;22.81;156493.91;1789404;78;21843;-68
2021/03/06 08:14:37;;;;;;;3.17;1.47;;;;;;;20.48;22.44;156513.75;1787631;79;21792;-68
2021/03/06 08:17:36;;;;;;;2.67;1.40;;;;;;;20.52;22.22;156525.66;1784128;79;21229;-65
2021/03/06 08:20:24;;;;;;;2.65;1.47;;;;;;;20.52;22.04;156524.30;1784578;79;21729;-69
2021/03/06 08:23:20;;;;;;;3.50;1.35;;;;;;;20.50;22.02;156519.00;1784940;78;21213;-68
2021/03/06 08:26:32;;;;;;;2.98;1.40;;;;;;;20.41;21.74;156495.22;1785231;78;21395;-69
2021/03/06 08:29:27;;;;;;;3.75;1.57;;;;;;;20.39;21.60;156489.91;1784743;78;21266;-71
2021/03/06 08:32:07;;;;;;;2.85;1.30;;;;;;;20.62;22.02;156550.73;1759976;79;21332;-67
2021/03/06 08:34:51;;;;;;;4.22;1.32;;;;;;;21.61;21.80;156815.47;1782017;79;22169;-66
2021/03/06 08:37:28;;;;;;;2.92;1.40;;;;;;;23.93;21.34;157432.95;1788014;79;21673;-68
2021/03/06 08:40:12;;;;;;;2.67;1.30;;;;;;;26.07;20.07;158003.75;1783793;79;21415;-71
2021/03/06 08:42:55;;;;;;;2.55;1.57;;;;;;;27.84;19.66;158477.08;1783250;79;21356;-69
2021/03/06 08:45:33;;;;;;;3.95;1.45;;;;;;;29.27;18.70;158859.11;1783535;78;21600;-67
2021/03/06 08:48:07;;;;;;;4.30;1.50;;;;;;;30.22;18.25;159113.59;1785578;78;21198;-69
2021/03/06 08:50:40;;;;;;;5.12;1.50;;;;;;;31.17;18.27;159369.62;1785267;78;21347;-70
2021/03/06 08:53:16;;;;;;;1.62;1.00;;;;;;;32.33;18.24;159681.86;1786409;78;21367;-68
2021/03/06 08:55:49;;;;;;;1.15;0.70;;;;;;;33.09;16.45;159883.47;1782416;78;21871;-69
2021/03/06 08:58:22;;;;;;;3.22;0.60;;;;;;;33.14;16.13;159898.22;1784041;78;21335;-69
2021/03/06 09:00:58;;;;;;;1.47;0.70;;;;;;;32.66;16.34;159769.98;1783644;78;21371;-70
2021/03/06 09:03:35;;;;;;;1.52;1.00;;;;;;;32.99;16.27;159856.78;1782166;78;21329;-66
2021/03/06 09:06:10;;;;;;;3.15;0.80;;;;;;;33.39;16.12;159964.98;1781627;78;21240;-69
2021/03/06 09:08:44;;;;;;;1.60;0.78;;;;;;;33.95;16.00;160115.98;1785028;78;21349;-68
2021/03/06 09:11:17;;;;;;;1.10;0.70;;;;;;;34.74;14.97;160328.53;1728846;78;21902;-69
2021/03/06 09:13:50;;;;;;;2.52;0.80;;;;;;;35.12;14.30;160430.20;1780524;79;21348;-67
2021/03/06 09:16:23;;;;;;;0.88;0.60;;;;;;;34.93;14.24;160378.00;1783106;78;21439;-68
2021/03/06 09:18:55;;;;;;;2.50;0.80;;;;;;;34.99;14.44;160394.06;1781895;78;21748;-69
2021/03/06 09:21:28;;;;;;;1.10;0.95;;;;;;;35.60;14.24;160558.64;1783724;78;21186;-66
2021/03/06 09:24:02;;;;;;;1.15;0.70;;;;;;;35.86;14.29;160628.20;1786280;78;21265;-69
2021/03/06 09:26:35;;;;;;;4.42;0.65;;;;;;;36.16;14.21;160709.87;1786425;78;21193;-69
2021/03/06 09:29:08;;;;;;;1.90;0.60;;;;;;;36.00;13.96;160667.05;1783912;78;21850;-68
2021/03/06 09:31:41;;;;;;;1.17;0.72;;;;;;;35.42;13.90;160511.78;1789993;78;21863;-68
2021/03/06 09:34:14;;;;;;;1.52;0.88;;;;;;;34.74;14.21;160327.22;1786854;78;21364;-68
2021/03/06 09:36:47;;;;;;;2.62;0.90;;;;;;;33.63;14.71;160029.14;1781943;78;21335;-69
2021/03/06 09:39:25;;;;;;;1.25;0.70;;;;;;;33.90;14.85;160101.30;1789039;78;21371;-67
2021/03/06 09:42:01;;;;;;;5.00;0.80;;;;;;;33.86;14.93;160091.91;1782437;78;21234;-69
2021/03/06 09:44:51;;;;;;;2.00;0.88;;;;;;;34.64;14.57;160300.50;1794558;78;21479;-68
2021/03/06 09:47:24;;;;;;;2.05;1.20;;;;;;;35.48;14.48;160526.48;1783006;78;21320;-68
2021/03/06 09:49:57;;;;;;;1.20;0.90;;;;;;;35.99;14.35;160663.05;1783981;78;21388;-69
2021/03/06 09:52:34;;;;;;;1.00;0.80;;;;;;;35.28;13.25;160473.00;1784596;78;21178;-69
2021/03/06 09:55:18;;;;;;;1.47;1.07;;;;;;;34.76;14.04;160332.58;1784703;78;21260;-69
2021/03/06 09:57:51;;;;;;;1.47;1.02;;;;;;;34.53;13.97;160271.05;1780624;78;21187;-69
2021/03/06 10:00:28;;;;;;;1.57;0.88;;;;;;;34.72;13.83;160323.17;1782267;78;21760;-68
2021/03/06 10:03:01;;;;;;;2.00;1.20;;;;;;;34.79;14.10;160340.56;1782791;78;22474;-69
2021/03/06 10:05:34;;;;;;;1.55;1.00;;;;;;;35.04;14.09;160408.78;1797217;78;21424;-68
2021/03/06 10:08:08;;;;;;;3.45;1.40;;;;;;;34.71;13.51;160320.56;1780549;78;21162;-69
2021/03/06 10:10:42;;;;;;;3.83;1.40;;;;;;;34.21;14.30;160186.84;1788235;78;21210;-70
2021/03/06 10:13:22;;;;;;;1.95;1.30;;;;;;;34.40;14.46;160237.59;1753203;79;21166;-70
2021/03/06 10:16:03;;;;;;;1.62;1.02;;;;;;;34.44;14.27;160246.95;1792175;79;21901;-70
2021/03/06 10:18:43;;;;;;;2.30;1.02;;;;;;;34.68;14.33;160312.52;1786727;78;21871;-69
2021/03/06 10:21:21;;;;;;;1.45;0.93;;;;;;;35.37;14.38;160498.38;1782050;78;21376;-69
2021/03/06 10:24:03;;;;;;;1.82;0.93;;;;;;;36.25;13.71;160733.95;1787312;78;21202;-70
2021/03/06 10:26:36;;;;;;;2.52;1.10;;;;;;;36.29;13.41;160744.63;1783879;78;21231;-67
2021/03/06 10:29:23;;;;;;;1.85;1.10;;;;;;;35.73;13.49;160593.42;1785273;78;21340;-69
2021/03/06 10:31:59;;;;;;;1.47;1.02;;;;;;;36.04;13.33;160676.41;1781567;78;21336;-68
2021/03/06 10:34:35;;;;;;;2.17;1.35;;;;;;;35.86;12.76;160629.53;1751807;78;21880;-70
2021/03/06 10:37:12;;;;;;;3.90;1.27;;;;;;;35.14;13.29;160436.88;1743506;79;21265;-69
2021/03/06 10:40:04;;;;;;;1.87;1.15;;;;;;;34.34;13.15;160220.22;1745692;79;21522;-68
2021/03/06 10:42:53;;;;;;;4.40;1.20;;;;;;;32.18;13.64;159639.14;1751656;79;21212;-68
2021/03/06 10:45:30;;;;;;;1.27;0.90;;;;;;;31.93;13.87;159572.42;1741611;79;21220;-69
2021/03/06 10:48:04;;;;;;;1.52;1.07;;;;;;;33.19;14.32;159912.89;1740683;79;21244;-69
2021/03/06 10:50:40;;;;;;;2.58;1.00;;;;;;;34.23;13.89;160190.83;1741196;79;21252;-67
2021/03/06 10:53:19;;;;;;;3.42;1.07;;;;;;;33.92;13.60;160106.59;1751795;79;21237;-68
2021/03/06 10:55:52;;;;;;;3.47;1.00;;;;;;;32.48;13.86;159720.55;1748621;79;21248;-68
2021/03/06 10:58:47;;;;;;;1.60;1.00;;;;;;;32.40;14.33;159699.22;1748250;79;21300;-69
2021/03/06 11:01:22;;;;;;;1.72;1.12;;;;;;;33.01;14.07;159863.44;1740442;79;21307;-65
2021/03/06 11:03:55;;;;;;;2.00;1.30;;;;;;;31.21;14.12;159378.94;1741576;79;21204;-67
2021/03/06 11:06:27;;;;;;;1.62;1.02;;;;;;;29.24;15.13;158851.09;1743743;79;21212;-66
2021/03/06 11:09:03;;;;;;;1.30;0.80;;;;;;;27.45;15.71;158373.28;1744401;79;21224;-68
2021/03/06 11:12:00;;;;;;;1.02;0.90;;;;;;;25.33;16.44;157807.20;1742468;79;21243;-68
2021/03/06 11:14:53;;;;;;;2.47;1.17;;;;;;;24.54;17.03;157594.78;1746555;79;21177;-67
2021/03/06 11:17:34;;;;;;;2.37;1.10;;;;;;;24.40;17.25;157557.62;1741383;79;21251;-68
2021/03/06 11:20:18;;;;;;;1.20;0.90;;;;;;;24.78;17.53;157661.12;1757907;79;21262;-65
2021/03/06 11:22:52;;;;;;;1.70;0.82;;;;;;;25.50;16.94;157852.31;1741304;81;21213;-66
2021/03/06 11:25:29;;;;;;;3.95;1.40;;;;;;;26.44;17.19;158102.11;1750236;80;21227;-67
2021/03/06 11:28:08;;;;;;;2.62;1.00;;;;;;;26.15;16.71;158026.33;1768167;79;21197;-66
2021/03/06 11:30:43;;;;;;;1.72;1.10;;;;;;;25.26;16.97;157788.59;1768061;79;21244;-67
2021/03/06 11:33:17;;;;;;;1.37;1.02;;;;;;;24.12;17.57;157484.69;1772017;79;21676;-66
2021/03/06 11:35:53;;;;;;;1.65;1.07;;;;;;;23.97;17.91;157443.53;1765868;79;21338;-69
2021/03/06 11:38:30;;;;;;;2.15;1.20;;;;;;;24.02;18.10;157456.81;1794525;79;21940;-67
2021/03/06 11:41:14;;;;;;;1.95;1.12;;;;;;;23.93;18.14;157432.95;1778879;79;21351;-67
2021/03/06 11:43:56;;;;;;;3.22;1.00;;;;;;;23.85;18.52;157411.70;1807882;78;21709;-67
2021/03/06 11:46:29;;;;;;;1.87;1.10;;;;;;;23.86;18.07;157415.72;1829849;78;21368;-66
2021/03/06 11:49:03;;;;;;;0.90;0.78;;;;;;;24.92;18.00;157696.98;1828780;78;21839;-67
2021/03/06 11:51:36;;;;;;;1.75;1.10;;;;;;;24.88;17.85;157687.66;1823597;78;21366;-67
2021/03/06 11:54:09;;;;;;;2.42;1.00;;;;;;;24.63;17.92;157618.69;1822504;78;21346;-67
2021/03/06 11:56:42;;;;;;;1.82;0.85;;;;;;;24.22;18.18;157511.19;1808820;79;21383;-67
2021/03/06 11:59:15;;;;;;;1.60;0.90;;;;;;;23.58;18.23;157338.73;1811914;78;21840;-67
2021/03/06 12:01:50;;;;;;;3.77;1.00;;;;;;;23.54;18.69;157329.47;1801834;79;21201;-68
2021/03/06 12:04:24;;;;;;;1.30;0.90;;;;;;;23.57;18.85;157337.44;1814289;79;21256;-67
2021/03/06 12:06:57;;;;;;;2.47;1.00;;;;;;;23.82;18.53;157403.78;1815417;79;21335;-67